Terminal Aerodrome Forecast
Issued by NWS

Home | Current Version | Previous Version | Text Only | Print | Product List | Glossary On
Versions: 1 2 3 4 5 6 7 8 9 10 11 12 13
000
FTUS45 KLKN 071721
TAFELY
TAF
KELY 071721Z 0718/0818 03005KT P6SM FEW200
     FM080200 16010KT P6SM BKN120
     FM080900 17011KT P6SM -SHSN OVC050
     FM081100 18011KT 5SM -SHSN OVC025=

USA.gov is the U.S. government's official web portal to all federal, state and local government web resources and services.